createdAt,value
2018-08-19T00:00:47.533Z,22.982788
2018-08-19T00:02:03.440Z,22.741089
2018-08-19T00:03:19.377Z,22.952576
2018-08-19T00:04:35.265Z,23.073425
2018-08-19T00:05:51.195Z,23.023071
2018-08-19T00:07:07.079Z,22.962646
2018-08-19T00:08:23.030Z,23.023071
2018-08-19T00:09:38.976Z,23.023071
2018-08-19T00:10:54.870Z,22.781372
2018-08-19T00:12:10.833Z,22.710876
2018-08-19T00:13:26.835Z,22.549744
2018-08-19T00:14:42.794Z,22.710876
2018-08-19T00:15:58.835Z,22.731018
2018-08-19T00:17:14.780Z,22.710876
2018-08-19T00:18:30.731Z,22.781372
2018-08-19T00:19:46.623Z,22.670593
2018-08-19T00:21:02.580Z,22.559814
2018-08-19T00:22:18.551Z,22.529602
2018-08-19T00:23:34.546Z,22.489319
2018-08-19T00:24:50.516Z,22.610168
2018-08-19T00:26:06.447Z,22.670593
2018-08-19T00:27:22.423Z,22.590027
2018-08-19T00:28:38.375Z,22.650452
2018-08-19T00:29:54.294Z,22.680664
2018-08-19T00:31:10.296Z,22.771301
2018-08-19T00:32:26.243Z,22.831726
2018-08-19T00:33:42.178Z,22.741089
2018-08-19T00:34:58.193Z,22.700806
2018-08-19T00:36:14.138Z,22.670593
2018-08-19T00:37:30.104Z,22.771301
2018-08-19T00:38:46.079Z,22.781372
2018-08-19T00:40:02.028Z,22.731018
2018-08-19T00:41:17.966Z,22.731018
2018-08-19T00:42:33.913Z,22.680664
2018-08-19T00:43:49.869Z,22.579956
2018-08-19T00:45:05.785Z,22.50946
2018-08-19T00:46:21.680Z,22.469177
2018-08-19T00:47:37.635Z,22.50946
2018-08-19T00:48:53.657Z,22.620239
2018-08-19T00:50:09.604Z,22.610168
2018-08-19T00:51:25.520Z,22.590027
2018-08-19T00:52:41.397Z,22.579956
2018-08-19T00:53:57.370Z,22.63031
2018-08-19T00:55:13.305Z,22.670593
2018-08-19T00:56:29.184Z,22.590027
2018-08-19T00:57:45.061Z,22.549744
2018-08-19T00:59:01.003Z,22.579956
2018-08-19T01:00:17.086Z,22.579956
2018-08-19T01:01:33.034Z,22.469177
2018-08-19T01:02:48.967Z,22.428894
2018-08-19T01:04:04.935Z,22.428894
2018-08-19T01:05:20.954Z,22.489319
2018-08-19T01:06:37.062Z,22.559814
2018-08-19T01:07:52.990Z,22.438965
2018-08-19T01:09:08.927Z,22.368469
2018-08-19T01:10:24.971Z,22.277832
2018-08-19T01:11:40.879Z,22.136841
2018-08-19T01:12:56.800Z,22.207336
2018-08-19T01:14:12.734Z,22.146912
2018-08-19T01:15:28.741Z,22.217407
2018-08-19T01:16:44.691Z,22.187195
2018-08-19T01:18:00.618Z,22.116699
2018-08-19T01:19:16.563Z,22.026062
2018-08-19T01:20:32.510Z,22.146912
2018-08-19T01:21:48.487Z,22.24762
2018-08-19T01:23:04.397Z,22.25769
2018-08-19T01:24:20.380Z,22.227478
2018-08-19T01:25:36.366Z,22.25769
2018-08-19T01:26:52.310Z,22.056274
2018-08-19T01:28:08.267Z,21.955566
2018-08-19T01:29:24.187Z,22.076416
2018-08-19T01:30:40.094Z,21.905212
2018-08-19T01:31:56.005Z,21.965637
2018-08-19T01:33:12.014Z,21.75415
2018-08-19T01:34:27.952Z,21.723938
2018-08-19T01:35:43.886Z,21.915283
2018-08-19T01:36:59.815Z,22.146912
2018-08-19T01:38:15.744Z,22.207336
2018-08-19T01:39:31.686Z,22.096558
2018-08-19T01:40:47.625Z,22.026062
2018-08-19T01:42:03.532Z,21.985779
2018-08-19T01:43:19.494Z,21.935425
2018-08-19T01:44:35.363Z,21.854858
2018-08-19T01:45:51.316Z,21.985779
2018-08-19T01:47:07.239Z,21.965637
2018-08-19T01:48:23.153Z,21.844788
2018-08-19T01:49:39.085Z,21.885071
2018-08-19T01:50:55.062Z,22.036133
2018-08-19T01:52:10.969Z,22.00592
2018-08-19T01:53:26.904Z,22.00592
2018-08-19T01:54:42.890Z,21.905212
2018-08-19T01:55:58.805Z,21.774292
2018-08-19T01:57:14.736Z,21.703796
2018-08-19T01:58:30.735Z,21.653442
2018-08-19T01:59:46.691Z,21.703796
2018-08-19T02:01:02.644Z,21.774292
2018-08-19T02:02:18.541Z,21.935425
2018-08-19T02:03:34.478Z,21.885071
2018-08-19T02:04:50.460Z,21.854858
2018-08-19T02:06:06.380Z,21.784363
2018-08-19T02:07:22.313Z,21.74408
2018-08-19T02:08:38.241Z,21.603088
2018-08-19T02:09:54.217Z,21.401672
2018-08-19T02:11:10.150Z,21.482239
2018-08-19T02:12:26.076Z,21.562805
2018-08-19T02:13:42.023Z,21.452026
2018-08-19T02:14:59.008Z,21.37146
2018-08-19T02:16:14.943Z,21.482239
2018-08-19T02:17:30.930Z,21.512451
2018-08-19T02:18:46.873Z,21.603088
2018-08-19T02:20:02.813Z,21.723938
2018-08-19T02:21:18.725Z,21.62323
2018-08-19T02:22:34.656Z,21.593018
2018-08-19T02:23:50.564Z,21.50238
2018-08-19T02:25:06.505Z,21.401672
2018-08-19T02:26:22.457Z,21.653442
2018-08-19T02:27:38.395Z,21.603088
2018-08-19T02:28:54.309Z,21.723938
2018-08-19T02:30:10.184Z,21.512451
2018-08-19T02:31:26.165Z,21.603088
2018-08-19T02:32:42.081Z,21.653442
2018-08-19T02:33:58.032Z,21.75415
2018-08-19T02:35:13.947Z,21.75415
2018-08-19T02:36:29.887Z,21.703796
2018-08-19T02:37:45.894Z,21.562805
2018-08-19T02:39:01.819Z,21.693726
2018-08-19T02:40:17.796Z,21.37146
2018-08-19T02:41:33.738Z,21.230469
2018-08-19T02:42:49.680Z,21.280823
2018-08-19T02:44:05.621Z,21.260681
2018-08-19T02:45:21.525Z,21.351318
2018-08-19T02:46:37.554Z,21.431885
2018-08-19T02:47:53.506Z,21.431885
2018-08-19T02:49:09.396Z,21.532593
2018-08-19T02:50:25.365Z,21.381531
2018-08-19T02:51:41.295Z,21.260681
2018-08-19T02:52:57.203Z,21.190186
2018-08-19T02:54:13.110Z,21.321106
2018-08-19T02:55:29.036Z,21.109619
2018-08-19T02:56:44.998Z,20.928345
2018-08-19T02:58:00.917Z,20.827637
2018-08-19T02:59:16.831Z,20.827637
2018-08-19T03:00:32.764Z,20.726929
2018-08-19T03:01:48.697Z,20.767212
2018-08-19T03:03:04.618Z,20.847778
2018-08-19T03:04:20.537Z,21.079407
2018-08-19T03:05:36.471Z,21.280823
2018-08-19T03:06:52.410Z,21.149902
2018-08-19T03:08:08.339Z,21.220398
2018-08-19T03:09:24.272Z,21.230469
2018-08-19T03:10:40.167Z,21.452026
2018-08-19T03:11:56.098Z,21.331177
2018-08-19T03:13:12.082Z,21.220398
2018-08-19T03:14:27.961Z,21.260681
2018-08-19T03:15:43.864Z,21.069336
2018-08-19T03:16:59.757Z,21.129761
2018-08-19T03:18:15.658Z,21.260681
2018-08-19T03:19:31.625Z,21.190186
2018-08-19T03:20:47.524Z,21.230469
2018-08-19T03:22:03.474Z,21.129761
2018-08-19T03:23:19.417Z,21.190186
2018-08-19T03:24:35.466Z,21.049194
2018-08-19T03:25:51.387Z,21.029053
2018-08-19T03:27:07.337Z,21.109619
2018-08-19T03:28:23.279Z,21.069336
2018-08-19T03:29:39.226Z,20.847778
2018-08-19T03:30:55.188Z,20.847778
2018-08-19T03:32:11.173Z,20.928345
2018-08-19T03:33:27.085Z,20.898132
2018-08-19T03:34:42.996Z,20.636292
2018-08-19T03:35:58.909Z,20.847778
2018-08-19T03:37:14.828Z,20.898132
2018-08-19T03:38:31.709Z,21.129761
2018-08-19T03:39:47.657Z,21.200256
2018-08-19T03:41:03.589Z,21.280823
2018-08-19T03:42:19.552Z,21.099548
2018-08-19T03:43:35.464Z,21.069336
2018-08-19T03:44:51.378Z,20.918274
2018-08-19T03:46:07.318Z,20.847778
2018-08-19T03:47:23.273Z,20.737
2018-08-19T03:48:39.224Z,20.485229
2018-08-19T03:49:56.166Z,20.193176
2018-08-19T03:51:12.066Z,20.344238
2018-08-19T03:52:27.961Z,20.263672
2018-08-19T03:53:43.929Z,20.24353
2018-08-19T03:54:59.832Z,20.374451
2018-08-19T03:56:15.762Z,20.424805
2018-08-19T03:57:31.658Z,20.424805
2018-08-19T03:58:47.622Z,20.324097
2018-08-19T04:00:03.544Z,20.334167
2018-08-19T04:01:19.425Z,20.475159
2018-08-19T04:02:35.344Z,20.374451
2018-08-19T04:03:51.263Z,20.444946
2018-08-19T04:05:08.164Z,20.324097
2018-08-19T04:06:24.062Z,20.223389
2018-08-19T04:07:40.001Z,20.334167
2018-08-19T04:08:55.962Z,20.394592
2018-08-19T04:10:11.874Z,20.344238
2018-08-19T04:11:27.815Z,20.183105
2018-08-19T04:12:43.782Z,20.11261
2018-08-19T04:13:59.727Z,20.455017
2018-08-19T04:15:15.631Z,20.676575
2018-08-19T04:16:31.589Z,20.817566
2018-08-19T04:17:47.553Z,20.797424
2018-08-19T04:19:03.483Z,20.706787
2018-08-19T04:20:19.512Z,20.706787
2018-08-19T04:21:35.456Z,20.737
2018-08-19T04:22:51.402Z,20.877991
2018-08-19T04:24:07.323Z,20.877991
2018-08-19T04:25:23.327Z,20.817566
2018-08-19T04:26:39.287Z,20.898132
2018-08-19T04:27:55.211Z,20.948486
2018-08-19T04:29:11.159Z,20.888062
2018-08-19T04:30:27.085Z,20.767212
2018-08-19T04:31:42.991Z,20.767212
2018-08-19T04:32:58.971Z,20.74707
2018-08-19T04:34:14.948Z,20.636292
2018-08-19T04:35:30.826Z,20.666504
2018-08-19T04:36:46.737Z,20.485229
2018-08-19T04:38:02.779Z,20.575867
2018-08-19T04:39:18.731Z,20.455017
2018-08-19T04:40:34.652Z,20.404663
2018-08-19T04:41:50.680Z,20.374451
2018-08-19T04:43:06.607Z,20.525513
2018-08-19T04:44:22.544Z,20.696716
2018-08-19T04:45:38.467Z,20.585938
2018-08-19T04:46:54.385Z,20.626221
2018-08-19T04:48:10.329Z,20.767212
2018-08-19T04:49:26.260Z,20.696716
2018-08-19T04:50:42.192Z,20.676575
2018-08-19T04:51:58.153Z,20.585938
2018-08-19T04:53:14.037Z,20.485229
2018-08-19T04:54:29.969Z,20.4953
2018-08-19T04:55:45.885Z,20.4953
2018-08-19T04:57:01.845Z,20.455017
2018-08-19T04:58:17.783Z,20.515442
2018-08-19T04:59:33.709Z,20.585938
2018-08-19T05:00:49.635Z,20.696716
2018-08-19T05:02:05.605Z,20.888062
2018-08-19T05:03:21.525Z,20.877991
2018-08-19T05:04:37.459Z,20.555725
2018-08-19T05:05:53.400Z,20.777283
2018-08-19T05:07:09.337Z,20.706787
2018-08-19T05:08:25.404Z,20.797424
2018-08-19T05:09:41.263Z,20.888062
2018-08-19T05:10:57.186Z,20.726929
2018-08-19T05:12:13.107Z,20.626221
2018-08-19T05:13:29.095Z,20.575867
2018-08-19T05:14:45.002Z,20.636292
2018-08-19T05:16:00.921Z,20.596008
2018-08-19T05:17:17.001Z,20.706787
2018-08-19T05:18:32.958Z,20.737
2018-08-19T05:19:48.874Z,20.74707
2018-08-19T05:21:04.818Z,20.424805
2018-08-19T05:22:20.861Z,20.696716
2018-08-19T05:23:36.885Z,20.737
2018-08-19T05:24:52.857Z,20.676575
2018-08-19T05:26:08.928Z,20.928345
2018-08-19T05:27:24.890Z,20.827637
2018-08-19T05:28:40.821Z,20.74707
2018-08-19T05:29:56.739Z,20.706787
2018-08-19T05:31:12.669Z,20.777283
2018-08-19T05:32:28.742Z,20.978699
2018-08-19T05:33:44.685Z,20.958557
2018-08-19T05:35:00.635Z,21.029053
2018-08-19T05:36:16.540Z,20.948486
2018-08-19T05:37:32.512Z,21.099548
2018-08-19T05:38:48.410Z,21.039124
2018-08-19T05:40:04.362Z,21.109619
2018-08-19T05:41:20.329Z,21.280823
2018-08-19T05:42:36.311Z,21.321106
2018-08-19T05:43:52.237Z,21.25061
2018-08-19T05:45:08.162Z,21.129761
2018-08-19T05:46:24.085Z,21.139832
2018-08-19T05:47:40.060Z,21.069336
2018-08-19T05:48:55.940Z,21.139832
2018-08-19T05:50:11.851Z,21.170044
2018-08-19T05:51:27.766Z,21.220398
2018-08-19T05:52:43.706Z,21.200256
2018-08-19T05:53:59.633Z,21.290894
2018-08-19T05:55:15.594Z,21.25061
2018-08-19T05:56:31.535Z,21.008911
2018-08-19T05:57:47.505Z,21.049194
2018-08-19T05:59:03.494Z,21.049194
2018-08-19T06:00:19.578Z,21.190186
2018-08-19T06:01:35.497Z,21.260681
2018-08-19T06:02:51.434Z,21.321106
2018-08-19T06:04:07.428Z,21.381531
2018-08-19T06:05:23.349Z,21.260681
2018-08-19T06:06:39.307Z,21.321106
2018-08-19T06:07:55.216Z,21.149902
2018-08-19T06:09:11.201Z,21.039124
2018-08-19T06:10:27.165Z,21.029053
2018-08-19T06:11:43.170Z,21.039124
2018-08-19T06:12:59.156Z,21.230469
2018-08-19T06:14:15.102Z,21.331177
2018-08-19T06:15:31.027Z,21.351318
2018-08-19T06:16:46.963Z,21.512451
2018-08-19T06:18:02.926Z,21.441956
2018-08-19T06:19:18.961Z,21.50238
2018-08-19T06:20:34.964Z,21.593018
2018-08-19T06:21:50.956Z,21.663513
2018-08-19T06:23:06.905Z,21.582947
2018-08-19T06:24:22.838Z,21.703796
2018-08-19T06:25:38.802Z,21.814575
2018-08-19T06:28:35.272Z,21.854858
2018-08-19T06:29:51.168Z,21.955566
2018-08-19T06:31:07.096Z,21.915283
2018-08-19T06:32:22.991Z,21.915283
2018-08-19T06:33:38.942Z,21.915283
2018-08-19T06:34:55.027Z,21.985779
2018-08-19T06:36:10.790Z,21.834717
2018-08-19T06:37:26.763Z,21.935425
2018-08-19T06:38:42.699Z,21.814575
2018-08-19T06:39:58.625Z,21.774292
2018-08-19T06:41:14.565Z,21.844788
2018-08-19T06:42:30.553Z,21.834717
2018-08-19T06:43:47.465Z,21.854858
2018-08-19T06:45:04.306Z,21.99585
2018-08-19T06:46:20.223Z,21.985779
2018-08-19T06:47:36.191Z,21.915283
2018-08-19T06:48:52.359Z,21.885071
2018-08-19T06:50:08.336Z,21.965637
2018-08-19T06:51:24.345Z,21.965637
2018-08-19T06:52:40.380Z,21.985779
2018-08-19T06:53:56.334Z,22.096558
2018-08-19T06:55:12.327Z,22.116699
2018-08-19T06:56:28.267Z,22.066345
2018-08-19T06:57:44.209Z,22.116699
2018-08-19T06:59:00.120Z,22.207336
2018-08-19T07:00:16.140Z,22.116699
2018-08-19T07:01:32.133Z,22.187195
2018-08-19T07:02:48.054Z,22.277832
2018-08-19T07:04:04.160Z,22.37854
2018-08-19T07:05:20.633Z,22.398682
2018-08-19T07:06:36.972Z,22.428894
2018-08-19T07:07:52.900Z,22.37854
2018-08-19T07:09:08.829Z,22.217407
2018-08-19T07:10:24.808Z,22.24762
2018-08-19T07:11:40.735Z,22.277832
2018-08-19T07:12:56.682Z,22.438965
2018-08-19T07:14:12.581Z,22.277832
2018-08-19T07:15:28.563Z,22.25769
2018-08-19T07:16:44.530Z,22.187195
2018-08-19T07:18:00.485Z,22.156982
2018-08-19T07:19:16.416Z,22.136841
2018-08-19T07:20:32.486Z,22.207336
2018-08-19T07:21:48.499Z,22.368469
2018-08-19T07:23:04.451Z,22.358398
2018-08-19T07:24:20.364Z,22.328186
2018-08-19T07:25:36.332Z,22.338257
2018-08-19T07:26:52.325Z,22.227478
2018-08-19T07:28:08.332Z,22.036133
2018-08-19T07:29:24.274Z,22.187195
2018-08-19T07:30:40.261Z,22.177124
2018-08-19T07:31:56.226Z,22.136841
2018-08-19T07:33:12.198Z,22.156982
2018-08-19T07:34:28.175Z,22.066345
2018-08-19T07:35:44.140Z,21.915283
2018-08-19T07:37:00.273Z,22.026062
2018-08-19T07:38:16.096Z,22.076416
2018-08-19T07:39:32.046Z,22.116699
2018-08-19T07:40:47.988Z,22.24762
2018-08-19T07:42:03.998Z,22.227478
2018-08-19T07:43:19.988Z,22.156982
2018-08-19T07:44:36.947Z,22.146912
2018-08-19T07:45:52.889Z,22.116699
2018-08-19T07:47:08.902Z,22.217407
2018-08-19T07:48:24.851Z,22.408752
2018-08-19T07:49:40.821Z,22.459106
2018-08-19T07:50:56.767Z,22.559814
2018-08-19T07:52:12.731Z,22.680664
2018-08-19T07:53:28.865Z,22.650452
2018-08-19T07:54:44.813Z,22.620239
2018-08-19T07:56:01.805Z,22.408752
2018-08-19T07:57:17.802Z,22.408752
2018-08-19T07:58:33.819Z,22.428894
2018-08-19T07:59:49.771Z,22.620239
2018-08-19T08:01:05.751Z,22.680664
2018-08-19T08:02:21.735Z,22.801514
2018-08-19T08:03:37.720Z,22.801514
2018-08-19T08:04:53.712Z,22.841797
2018-08-19T08:06:09.758Z,22.861938
2018-08-19T08:07:26.212Z,22.76123
2018-08-19T08:08:42.334Z,22.731018
2018-08-19T08:09:58.307Z,22.680664
2018-08-19T08:11:14.271Z,22.841797
2018-08-19T08:12:30.177Z,22.861938
2018-08-19T08:13:46.122Z,22.982788
2018-08-19T08:15:02.098Z,23.073425
2018-08-19T08:16:18.775Z,23.043213
2018-08-19T08:17:34.772Z,23.043213
2018-08-19T08:18:50.778Z,23.073425
2018-08-19T08:20:06.943Z,23.103638
2018-08-19T08:21:22.996Z,23.164062
2018-08-19T08:22:38.877Z,22.892151
2018-08-19T08:23:54.846Z,22.982788
2018-08-19T08:25:10.856Z,23.043213
2018-08-19T08:26:26.853Z,23.174133
2018-08-19T08:27:42.790Z,23.214417
2018-08-19T08:28:58.736Z,23.113708
2018-08-19T08:30:15.031Z,23.083496
2018-08-19T08:31:30.984Z,23.13385
2018-08-19T08:32:46.944Z,23.13385
2018-08-19T08:34:03.000Z,22.861938
2018-08-19T08:35:18.964Z,22.811584
2018-08-19T08:36:34.924Z,22.992859
2018-08-19T08:37:50.952Z,23.294983
2018-08-19T08:39:06.897Z,23.214417
2018-08-19T08:40:22.878Z,23.13385
2018-08-19T08:41:38.884Z,23.294983
2018-08-19T08:42:55.682Z,23.315125
2018-08-19T08:44:12.694Z,23.13385
2018-08-19T08:45:28.650Z,23.184204
2018-08-19T08:46:44.599Z,23.335266
2018-08-19T08:48:00.653Z,23.50647
2018-08-19T08:49:16.602Z,23.556824
2018-08-19T08:50:32.640Z,23.174133
2018-08-19T08:51:48.744Z,23.103638
2018-08-19T08:53:04.699Z,23.2547
2018-08-19T08:54:20.694Z,23.204346
2018-08-19T08:55:36.685Z,23.184204
2018-08-19T08:56:52.744Z,23.214417
2018-08-19T08:58:08.769Z,23.234558
2018-08-19T08:59:24.866Z,23.294983
2018-08-19T09:00:40.873Z,23.264771
2018-08-19T09:01:56.988Z,23.264771
2018-08-19T09:03:13.039Z,23.325195
2018-08-19T09:04:29.081Z,23.38562
2018-08-19T09:05:46.028Z,23.365479
2018-08-19T09:07:01.977Z,23.184204
2018-08-19T09:08:18.002Z,23.2547
2018-08-19T09:09:33.969Z,23.214417
2018-08-19T09:10:50.050Z,23.264771
2018-08-19T09:12:06.114Z,23.365479
2018-08-19T09:13:22.158Z,23.516541
2018-08-19T09:14:39.095Z,23.50647
2018-08-19T09:15:55.057Z,23.556824
2018-08-19T09:17:11.067Z,23.556824
2018-08-19T09:18:27.138Z,23.697815
2018-08-19T09:19:43.117Z,23.2547
2018-08-19T09:20:59.039Z,23.415833
2018-08-19T09:22:15.058Z,23.546753
2018-08-19T09:23:31.122Z,23.516541
2018-08-19T09:24:47.005Z,23.657532
2018-08-19T09:26:02.970Z,23.768311
2018-08-19T09:27:18.995Z,23.486328
2018-08-19T09:30:15.824Z,23.707886
2018-08-19T09:31:31.915Z,23.808594
2018-08-19T09:32:47.914Z,23.858948
2018-08-19T09:34:03.879Z,23.75824
2018-08-19T09:35:19.839Z,23.808594
2018-08-19T09:36:35.869Z,23.818665
2018-08-19T09:37:51.856Z,23.848877
2018-08-19T09:39:07.848Z,23.88916
2018-08-19T09:40:23.794Z,23.617249
2018-08-19T09:41:39.840Z,23.808594
2018-08-19T09:42:55.860Z,23.919373
2018-08-19T09:44:11.856Z,23.728027
2018-08-19T09:45:27.920Z,23.788452
2018-08-19T09:46:43.890Z,23.919373
2018-08-19T09:47:59.964Z,23.999939
2018-08-19T09:49:15.883Z,23.75824
2018-08-19T09:50:31.852Z,23.556824
2018-08-19T09:51:47.866Z,23.466187
2018-08-19T09:53:04.745Z,23.738098
2018-08-19T09:54:20.718Z,23.697815
2018-08-19T09:55:36.739Z,23.858948
2018-08-19T09:56:52.832Z,23.959656
2018-08-19T09:58:08.779Z,23.879089
2018-08-19T09:59:24.791Z,24.030151
2018-08-19T10:00:40.779Z,24.221497
2018-08-19T10:01:56.732Z,24.221497
2018-08-19T10:03:12.680Z,24.322205
2018-08-19T10:04:28.619Z,24.291992
2018-08-19T10:05:44.696Z,24.181213
2018-08-19T10:07:00.790Z,24.291992
2018-08-19T10:08:16.810Z,24.402771
2018-08-19T10:09:32.803Z,24.241638
2018-08-19T10:12:30.433Z,24.030151
2018-08-19T10:13:47.513Z,24.100647
2018-08-19T10:15:03.340Z,24.342346
2018-08-19T10:16:19.318Z,24.181213
2018-08-19T10:17:35.289Z,24.161072
2018-08-19T10:18:51.257Z,24.251709
2018-08-19T10:20:07.234Z,24.473267
2018-08-19T10:21:23.234Z,24.473267
2018-08-19T10:22:39.373Z,24.443054
2018-08-19T10:23:55.313Z,24.281921
2018-08-19T10:25:11.306Z,23.707886
2018-08-19T10:26:27.256Z,23.88916
2018-08-19T10:27:43.267Z,23.939514
2018-08-19T10:28:59.211Z,23.848877
2018-08-19T10:30:15.135Z,24.26178
2018-08-19T10:31:31.139Z,24.070435
2018-08-19T10:32:48.179Z,24.14093
2018-08-19T10:34:04.210Z,24.412842
2018-08-19T10:35:20.186Z,24.533691
2018-08-19T10:36:36.133Z,24.181213
2018-08-19T10:37:52.089Z,24.312134
2018-08-19T10:39:08.136Z,24.473267
2018-08-19T10:40:24.064Z,24.533691
2018-08-19T10:41:40.037Z,24.584045
2018-08-19T10:42:56.010Z,24.76532
2018-08-19T10:44:12.010Z,24.684753
2018-08-19T10:45:28.055Z,24.553833
2018-08-19T10:46:44.156Z,24.312134
2018-08-19T10:48:00.151Z,24.191284
2018-08-19T10:49:16.159Z,24.584045
2018-08-19T10:50:32.152Z,24.815674
2018-08-19T10:51:48.094Z,24.855957
2018-08-19T10:53:04.107Z,24.735107
2018-08-19T10:54:20.122Z,24.876099
2018-08-19T10:55:36.158Z,24.815674
2018-08-19T10:56:52.112Z,24.775391
2018-08-19T10:58:08.075Z,24.553833
2018-08-19T10:59:24.044Z,24.684753
2018-08-19T11:00:40.015Z,24.634399
2018-08-19T11:01:56.097Z,24.503479
2018-08-19T11:03:12.075Z,24.624329
2018-08-19T11:04:28.073Z,25.027161
2018-08-19T11:05:44.101Z,25.248718
2018-08-19T11:07:00.069Z,24.986877
2018-08-19T11:08:16.270Z,24.996948
2018-08-19T11:11:12.682Z,25.087585
2018-08-19T11:12:28.669Z,25.137939
2018-08-19T11:13:44.603Z,24.855957
2018-08-19T11:15:00.524Z,24.745178
2018-08-19T11:16:16.472Z,24.714966
2018-08-19T11:17:33.419Z,24.745178
2018-08-19T11:18:49.357Z,24.51355
2018-08-19T11:20:05.295Z,24.684753
2018-08-19T11:21:21.252Z,24.614258
2018-08-19T11:22:37.227Z,24.815674
2018-08-19T11:23:53.203Z,24.815674
2018-08-19T11:25:09.190Z,25.027161
2018-08-19T11:26:25.186Z,25.117798
2018-08-19T11:27:41.237Z,24.855957
2018-08-19T11:28:57.199Z,25.107727
2018-08-19T11:30:13.260Z,25.248718
2018-08-19T11:31:29.257Z,25.158081
2018-08-19T11:32:45.162Z,25.359497
2018-08-19T11:34:01.333Z,25.208435
2018-08-19T11:35:17.241Z,25.621338
2018-08-19T11:36:33.214Z,25.852966
2018-08-19T11:37:49.195Z,25.913391
2018-08-19T11:39:05.152Z,25.923462
2018-08-19T11:40:21.212Z,25.832825
2018-08-19T11:41:37.194Z,26.134949
2018-08-19T11:42:53.146Z,26.265869
2018-08-19T11:44:09.157Z,25.983887
2018-08-19T11:45:25.133Z,25.802612
2018-08-19T11:46:41.132Z,25.671692
2018-08-19T11:47:57.100Z,25.762329
2018-08-19T11:49:13.059Z,25.953674
2018-08-19T11:50:29.046Z,25.832825
2018-08-19T11:51:45.000Z,25.89325
2018-08-19T11:53:00.986Z,25.7724
2018-08-19T11:54:16.952Z,25.631409
2018-08-19T11:55:32.899Z,25.711975
2018-08-19T11:56:48.921Z,26.14502
2018-08-19T11:58:04.830Z,26.507568
2018-08-19T11:59:20.874Z,26.547852
2018-08-19T12:00:36.964Z,26.437073
2018-08-19T12:01:52.924Z,26.386719
2018-08-19T12:03:08.884Z,26.286011
2018-08-19T12:04:24.861Z,26.386719
2018-08-19T12:05:40.807Z,26.386719
2018-08-19T12:06:56.758Z,26.265869
2018-08-19T12:08:12.740Z,26.014099
2018-08-19T12:09:28.699Z,25.933533
2018-08-19T12:10:44.612Z,26.034241
2018-08-19T12:12:00.578Z,26.447144
2018-08-19T12:13:16.567Z,26.77948
2018-08-19T12:14:32.499Z,26.698914
2018-08-19T12:15:48.447Z,26.306152
2018-08-19T12:17:04.540Z,26.386719
2018-08-19T12:18:20.372Z,26.386719
2018-08-19T12:19:36.394Z,26.084595
2018-08-19T12:20:52.296Z,26.084595
2018-08-19T12:22:08.281Z,26.14502
2018-08-19T12:23:24.259Z,26.366577
2018-08-19T12:24:40.210Z,26.437073
2018-08-19T12:25:56.116Z,26.296082
2018-08-19T12:27:12.045Z,26.547852
2018-08-19T12:31:24.637Z,26.306152
2018-08-19T12:32:40.601Z,26.255798
2018-08-19T12:33:56.580Z,26.477356
2018-08-19T12:35:12.584Z,26.789551
2018-08-19T12:36:28.512Z,26.960754
2018-08-19T12:37:44.487Z,27.333374
2018-08-19T12:39:00.511Z,27.65564
2018-08-19T12:40:16.457Z,27.595215
2018-08-19T12:41:32.401Z,27.383728
2018-08-19T12:42:48.356Z,27.353516
2018-08-19T12:44:04.408Z,27.675781
2018-08-19T12:45:20.464Z,27.967834
2018-08-19T12:46:36.355Z,27.947693
2018-08-19T12:47:52.374Z,27.383728
2018-08-19T12:49:08.388Z,27.28302
2018-08-19T12:50:24.383Z,27.605286
2018-08-19T12:51:40.339Z,27.474365
2018-08-19T12:52:56.310Z,27.192383
2018-08-19T12:54:12.230Z,27.192383
2018-08-19T12:55:28.215Z,27.444153
2018-08-19T12:56:44.214Z,27.373657
2018-08-19T12:58:00.211Z,27.101746
2018-08-19T12:59:16.184Z,27.03125
2018-08-19T13:00:32.182Z,26.980896
2018-08-19T13:04:44.710Z,27.806702
2018-08-19T13:06:00.631Z,27.937622
2018-08-19T13:07:16.559Z,27.90741
2018-08-19T13:08:32.539Z,27.524719
2018-08-19T13:09:48.592Z,27.454224
2018-08-19T13:11:04.519Z,27.846985
2018-08-19T13:12:20.488Z,27.927551
2018-08-19T13:13:36.452Z,27.90741
2018-08-19T13:14:52.416Z,28.088684
2018-08-19T13:16:08.374Z,27.675781
2018-08-19T13:17:24.315Z,27.726135
2018-08-19T13:18:40.294Z,27.41394
2018-08-19T13:19:56.216Z,27.333374
2018-08-19T13:21:12.166Z,27.232666
2018-08-19T13:22:28.119Z,27.41394
2018-08-19T13:23:44.057Z,27.554932
2018-08-19T13:25:00.065Z,27.504578
2018-08-19T13:26:16.111Z,27.53479
2018-08-19T13:27:32.058Z,27.806702
2018-08-19T13:28:48.071Z,27.716064
2018-08-19T13:30:03.978Z,27.605286
2018-08-19T13:31:19.973Z,27.625427
2018-08-19T13:32:35.953Z,27.675781
2018-08-19T13:33:51.861Z,27.816772
2018-08-19T13:35:07.810Z,27.998047
2018-08-19T13:36:23.909Z,27.78656
2018-08-19T13:37:39.880Z,27.806702
2018-08-19T13:38:55.837Z,27.877197
2018-08-19T13:40:11.895Z,28.058472
2018-08-19T13:41:27.897Z,28.400879
2018-08-19T13:42:43.881Z,28.491516
2018-08-19T13:43:59.807Z,28.491516
2018-08-19T13:45:15.810Z,28.723145
2018-08-19T13:46:31.725Z,28.823853
2018-08-19T13:47:47.700Z,28.592224
2018-08-19T13:49:03.621Z,28.713074
2018-08-19T13:50:19.562Z,28.864136
2018-08-19T13:51:35.583Z,28.894348
2018-08-19T13:52:51.720Z,28.924561
2018-08-19T13:54:07.610Z,28.924561
2018-08-19T13:55:23.609Z,28.864136
2018-08-19T13:56:39.565Z,28.974915
2018-08-19T13:57:55.643Z,29.04541
2018-08-19T13:59:11.547Z,28.974915
2018-08-19T14:00:27.559Z,28.874207
2018-08-19T14:01:43.548Z,28.934631
2018-08-19T14:02:59.551Z,29.025269
2018-08-19T14:04:15.452Z,29.015198
2018-08-19T14:05:31.520Z,28.944702
2018-08-19T14:06:47.687Z,29.04541
2018-08-19T14:08:03.661Z,29.125977
2018-08-19T14:09:19.767Z,29.125977
2018-08-19T14:10:35.901Z,29.04541
2018-08-19T14:11:51.935Z,28.874207
2018-08-19T14:13:08.036Z,28.471375
2018-08-19T14:14:24.095Z,28.229675
2018-08-19T14:15:40.258Z,28.300171
2018-08-19T14:16:56.261Z,28.451233
2018-08-19T14:18:12.313Z,28.471375
2018-08-19T14:19:28.448Z,28.330383
2018-08-19T14:20:44.442Z,28.431091
2018-08-19T14:22:00.386Z,28.400879
2018-08-19T14:23:16.346Z,28.400879
2018-08-19T14:24:32.308Z,28.461304
2018-08-19T14:25:48.275Z,28.531799
2018-08-19T14:27:04.231Z,28.572083
2018-08-19T14:28:20.360Z,28.531799
2018-08-19T14:29:36.277Z,28.703003
2018-08-19T14:30:53.339Z,28.783569
2018-08-19T14:32:10.446Z,28.803711
2018-08-19T14:33:26.422Z,28.874207
2018-08-19T14:34:42.374Z,28.964844
2018-08-19T14:35:58.324Z,28.934631
2018-08-19T14:37:14.327Z,29.065552
2018-08-19T14:38:30.452Z,28.833923
2018-08-19T14:39:46.486Z,28.823853
2018-08-19T14:41:02.375Z,28.904419
2018-08-19T14:42:18.323Z,29.307251